sensor_id;sensor_type;location;lat;lon;timestamp;temperature;humidity
8422;DHT22;4248;48.196;10.924;2022-08-01T00:01:56;19.00;37.00
8422;DHT22;4248;48.196;10.924;2022-08-01T00:04:22;19.20;37.60
8422;DHT22;4248;48.196;10.924;2022-08-01T00:11:39;19.40;42.30
8422;DHT22;4248;48.196;10.924;2022-08-01T00:14:05;19.50;40.10
8422;DHT22;4248;48.196;10.924;2022-08-01T00:16:30;19.80;37.10
8422;DHT22;4248;48.196;10.924;2022-08-01T00:18:56;19.50;38.80
8422;DHT22;4248;48.196;10.924;2022-08-01T00:23:48;19.70;44.00
8422;DHT22;4248;48.196;10.924;2022-08-01T00:31:06;18.80;42.20
8422;DHT22;4248;48.196;10.924;2022-08-01T00:35:58;18.90;37.30
8422;DHT22;4248;48.196;10.924;2022-08-01T00:40:50;18.80;35.10
8422;DHT22;4248;48.196;10.924;2022-08-01T00:45:42;18.70;39.50
8422;DHT22;4248;48.196;10.924;2022-08-01T00:50:34;18.70;44.40
8422;DHT22;4248;48.196;10.924;2022-08-01T00:53:00;18.50;36.00
8422;DHT22;4248;48.196;10.924;2022-08-01T00:55:27;18.50;36.10
8422;DHT22;4248;48.196;10.924;2022-08-01T00:57:54;18.40;36.10
8422;DHT22;4248;48.196;10.924;2022-08-01T01:00:20;18.40;36.40
8422;DHT22;4248;48.196;10.924;2022-08-01T01:02:45;18.30;40.00
8422;DHT22;4248;48.196;10.924;2022-08-01T01:10:17;18.20;37.10
8422;DHT22;4248;48.196;10.924;2022-08-01T01:13:09;18.20;37.10
8422;DHT22;4248;48.196;10.924;2022-08-01T01:15:55;18.20;41.50
8422;DHT22;4248;48.196;10.924;2022-08-01T01:18:42;18.00;37.50
8422;DHT22;4248;48.196;10.924;2022-08-01T01:21:47;18.00;40.70
8422;DHT22;4248;48.196;10.924;2022-08-01T01:30:00;17.70;43.20
8422;DHT22;4248;48.196;10.924;2022-08-01T01:32:31;17.90;41.60
8422;DHT22;4248;48.196;10.924;2022-08-01T01:35:01;18.10;44.30
8422;DHT22;4248;48.196;10.924;2022-08-01T01:37:29;17.90;37.90
8422;DHT22;4248;48.196;10.924;2022-08-01T01:39:58;17.70;39.40
8422;DHT22;4248;48.196;10.924;2022-08-01T01:42:25;17.80;38.00
8422;DHT22;4248;48.196;10.924;2022-08-01T01:49:46;17.70;38.20
8422;DHT22;4248;48.196;10.924;2022-08-01T01:52:14;17.60;40.80
8422;DHT22;4248;48.196;10.924;2022-08-01T01:54:45;18.60;39.30
8422;DHT22;4248;48.196;10.924;2022-08-01T01:57:12;17.70;38.50
8422;DHT22;4248;48.196;10.924;2022-08-01T01:59:39;17.70;38.60
8422;DHT22;4248;48.196;10.924;2022-08-01T02:02:06;17.70;38.80
8422;DHT22;4248;48.196;10.924;2022-08-01T02:04:36;17.60;45.30
8422;DHT22;4248;48.196;10.924;2022-08-01T02:07:04;17.50;45.70
8422;DHT22;4248;48.196;10.924;2022-08-01T02:09:32;17.60;38.80
8422;DHT22;4248;48.196;10.924;2022-08-01T02:11:59;17.60;39.00
8422;DHT22;4248;48.196;10.924;2022-08-01T02:14:27;17.60;38.80
8422;DHT22;4248;48.196;10.924;2022-08-01T02:16:54;17.60;39.20
8422;DHT22;4248;48.196;10.924;2022-08-01T02:21:55;17.50;45.90
8422;DHT22;4248;48.196;10.924;2022-08-01T02:24:31;17.50;39.30
8422;DHT22;4248;48.196;10.924;2022-08-01T02:27:01;17.50;39.20
8422;DHT22;4248;48.196;10.924;2022-08-01T02:30:13;17.50;43.90
8422;DHT22;4248;48.196;10.924;2022-08-01T02:32:24;17.40;40.90
8422;DHT22;4248;48.196;10.924;2022-08-01T02:34:52;17.40;39.60
8422;DHT22;4248;48.196;10.924;2022-08-01T02:37:19;17.30;39.70
8422;DHT22;4248;48.196;10.924;2022-08-01T02:39:48;17.30;39.80
8422;DHT22;4248;48.196;10.924;2022-08-01T02:42:18;17.30;40.00
8422;DHT22;4248;48.196;10.924;2022-08-01T02:44:44;17.30;40.40
8422;DHT22;4248;48.196;10.924;2022-08-01T02:47:12;17.30;40.10
8422;DHT22;4248;48.196;10.924;2022-08-01T02:49:42;17.30;40.20
8422;DHT22;4248;48.196;10.924;2022-08-01T02:52:12;17.50;41.20
8422;DHT22;4248;48.196;10.924;2022-08-01T02:54:39;17.30;40.00
8422;DHT22;4248;48.196;10.924;2022-08-01T02:57:06;17.30;40.10
8422;DHT22;4248;48.196;10.924;2022-08-01T02:59:34;17.40;40.40
8422;DHT22;4248;48.196;10.924;2022-08-01T03:02:03;17.30;40.10
8422;DHT22;4248;48.196;10.924;2022-08-01T03:04:32;17.20;45.60
8422;DHT22;4248;48.196;10.924;2022-08-01T03:07:00;17.30;47.90
8422;DHT22;4248;48.196;10.924;2022-08-01T03:09:27;17.10;45.80
8422;DHT22;4248;48.196;10.924;2022-08-01T03:11:57;17.30;41.30
8422;DHT22;4248;48.196;10.924;2022-08-01T03:14:24;17.30;40.40
8422;DHT22;4248;48.196;10.924;2022-08-01T03:16:51;17.30;40.50
8422;DHT22;4248;48.196;10.924;2022-08-01T03:19:20;17.30;40.60
8422;DHT22;4248;48.196;10.924;2022-08-01T03:21:48;16.90;43.70
8422;DHT22;4248;48.196;10.924;2022-08-01T03:24:16;17.30;40.70
8422;DHT22;4248;48.196;10.924;2022-08-01T03:26:43;17.30;40.80
8422;DHT22;4248;48.196;10.924;2022-08-01T03:29:14;17.50;44.40
8422;DHT22;4248;48.196;10.924;2022-08-01T03:31:44;17.20;40.80
8422;DHT22;4248;48.196;10.924;2022-08-01T03:34:10;17.00;50.20
8422;DHT22;4248;48.196;10.924;2022-08-01T03:36:43;17.20;41.10
8422;DHT22;4248;48.196;10.924;2022-08-01T03:39:09;17.40;49.10
8422;DHT22;4248;48.196;10.924;2022-08-01T03:41:40;17.20;41.00
8422;DHT22;4248;48.196;10.924;2022-08-01T03:44:19;17.20;40.90
8422;DHT22;4248;48.196;10.924;2022-08-01T03:46:54;17.30;41.10
8422;DHT22;4248;48.196;10.924;2022-08-01T03:49:25;17.20;40.80
8422;DHT22;4248;48.196;10.924;2022-08-01T03:51:52;17.30;40.90
8422;DHT22;4248;48.196;10.924;2022-08-01T03:54:24;17.20;40.90
8422;DHT22;4248;48.196;10.924;2022-08-01T03:56:51;17.60;49.40
8422;DHT22;4248;48.196;10.924;2022-08-01T03:59:17;17.30;41.00
8422;DHT22;4248;48.196;10.924;2022-08-01T04:01:45;17.20;40.80
8422;DHT22;4248;48.196;10.924;2022-08-01T04:04:12;17.30;40.90
8422;DHT22;4248;48.196;10.924;2022-08-01T04:21:18;17.40;40.40
8422;DHT22;4248;48.196;10.924;2022-08-01T04:23:46;17.80;43.30
8422;DHT22;4248;48.196;10.924;2022-08-01T04:26:13;17.30;44.40
8422;DHT22;4248;48.196;10.924;2022-08-01T04:28:41;17.90;47.90
8422;DHT22;4248;48.196;10.924;2022-08-01T04:31:09;17.70;40.20
8422;DHT22;4248;48.196;10.924;2022-08-01T04:33:35;17.70;40.20
8422;DHT22;4248;48.196;10.924;2022-08-01T04:36:04;17.70;40.00
8422;DHT22;4248;48.196;10.924;2022-08-01T04:38:33;17.80;46.70
8422;DHT22;4248;48.196;10.924;2022-08-01T04:43:28;17.90;42.10
8422;DHT22;4248;48.196;10.924;2022-08-01T04:45:54;17.80;41.00
8422;DHT22;4248;48.196;10.924;2022-08-01T04:48:20;18.20;39.30
8422;DHT22;4248;48.196;10.924;2022-08-01T04:53:18;18.50;38.00
8422;DHT22;4248;48.196;10.924;2022-08-01T04:55:44;18.80;38.00
8422;DHT22;4248;48.196;10.924;2022-08-01T05:03:03;19.20;38.50
8422;DHT22;4248;48.196;10.924;2022-08-01T05:05:29;18.90;37.90
8422;DHT22;4248;48.196;10.924;2022-08-01T05:12:47;19.10;37.50
8422;DHT22;4248;48.196;10.924;2022-08-01T05:15:13;19.50;36.60
8422;DHT22;4248;48.196;10.924;2022-08-01T05:20:05;20.00;35.80
8422;DHT22;4248;48.196;10.924;2022-08-01T05:25:00;21.10;34.50
8422;DHT22;4248;48.196;10.924;2022-08-01T05:27:26;21.50;36.90
8422;DHT22;4248;48.196;10.924;2022-08-01T05:39:36;25.80;25.50
8422;DHT22;4248;48.196;10.924;2022-08-01T05:42:01;27.20;26.40
8422;DHT22;4248;48.196;10.924;2022-08-01T05:46:53;28.80;21.20
8422;DHT22;4248;48.196;10.924;2022-08-01T05:49:19;28.70;18.30
8422;DHT22;4248;48.196;10.924;2022-08-01T06:03:55;27.60;18.90
8422;DHT22;4248;48.196;10.924;2022-08-01T06:06:21;26.60;19.40
8422;DHT22;4248;48.196;10.924;2022-08-01T06:08:48;25.90;21.40
8422;DHT22;4248;48.196;10.924;2022-08-01T06:16:08;24.90;21.40
8422;DHT22;4248;48.196;10.924;2022-08-01T06:25:53;24.40;22.90
8422;DHT22;4248;48.196;10.924;2022-08-01T06:38:03;24.80;23.70
8422;DHT22;4248;48.196;10.924;2022-08-01T06:40:29;25.30;23.10
8422;DHT22;4248;48.196;10.924;2022-08-01T06:45:20;25.20;18.90
8422;DHT22;4248;48.196;10.924;2022-08-01T06:47:48;25.20;20.80
8422;DHT22;4248;48.196;10.924;2022-08-01T06:50:14;25.50;18.20
8422;DHT22;4248;48.196;10.924;2022-08-01T06:52:40;25.60;18.80
8422;DHT22;4248;48.196;10.924;2022-08-01T06:55:06;25.20;19.80
8422;DHT22;4248;48.196;10.924;2022-08-01T06:57:32;25.00;20.80
8422;DHT22;4248;48.196;10.924;2022-08-01T07:00:02;24.50;22.10
8422;DHT22;4248;48.196;10.924;2022-08-01T07:09:46;24.40;25.40
8422;DHT22;4248;48.196;10.924;2022-08-01T07:17:03;24.80;24.70
8422;DHT22;4248;48.196;10.924;2022-08-01T07:21:55;24.30;23.90
8422;DHT22;4248;48.196;10.924;2022-08-01T07:26:48;24.80;21.70
8422;DHT22;4248;48.196;10.924;2022-08-01T07:36:31;24.60;23.80
8422;DHT22;4248;48.196;10.924;2022-08-01T07:43:49;25.10;24.50
8422;DHT22;4248;48.196;10.924;2022-08-01T07:46:16;25.00;22.00
8422;DHT22;4248;48.196;10.924;2022-08-01T07:48:42;24.90;24.10
8422;DHT22;4248;48.196;10.924;2022-08-01T07:56:04;25.50;23.10
8422;DHT22;4248;48.196;10.924;2022-08-01T07:58:31;25.20;25.30
8422;DHT22;4248;48.196;10.924;2022-08-01T08:03:23;25.50;25.30
8422;DHT22;4248;48.196;10.924;2022-08-01T08:20:26;26.00;22.90
8422;DHT22;4248;48.196;10.924;2022-08-01T08:22:54;26.00;21.80
8422;DHT22;4248;48.196;10.924;2022-08-01T08:25:20;25.80;20.70
8422;DHT22;4248;48.196;10.924;2022-08-01T08:27:47;25.80;21.10
8422;DHT22;4248;48.196;10.924;2022-08-01T08:30:13;25.80;20.90
8422;DHT22;4248;48.196;10.924;2022-08-01T08:32:40;25.40;23.90
8422;DHT22;4248;48.196;10.924;2022-08-01T08:35:06;25.80;20.60
8422;DHT22;4248;48.196;10.924;2022-08-01T08:37:36;26.00;20.30
8422;DHT22;4248;48.196;10.924;2022-08-01T08:40:06;26.20;20.00
8422;DHT22;4248;48.196;10.924;2022-08-01T08:42:32;26.00;23.50
8422;DHT22;4248;48.196;10.924;2022-08-01T08:47:24;26.20;21.00
8422;DHT22;4248;48.196;10.924;2022-08-01T08:49:53;26.40;21.30
8422;DHT22;4248;48.196;10.924;2022-08-01T08:52:20;26.70;20.90
8422;DHT22;4248;48.196;10.924;2022-08-01T08:54:47;26.50;18.70
8422;DHT22;4248;48.196;10.924;2022-08-01T08:57:14;26.60;18.90
8422;DHT22;4248;48.196;10.924;2022-08-01T08:59:42;26.80;20.70
8422;DHT22;4248;48.196;10.924;2022-08-01T09:04:36;27.00;19.30
8422;DHT22;4248;48.196;10.924;2022-08-01T09:07:04;26.90;17.80
8422;DHT22;4248;48.196;10.924;2022-08-01T09:14:22;26.70;21.50
8422;DHT22;4248;48.196;10.924;2022-08-01T09:17:07;27.30;17.40
8422;DHT22;4248;48.196;10.924;2022-08-01T09:22:10;27.30;18.10
8422;DHT22;4248;48.196;10.924;2022-08-01T09:24:37;27.20;19.50
8422;DHT22;4248;48.196;10.924;2022-08-01T09:27:21;27.40;16.80
8422;DHT22;4248;48.196;10.924;2022-08-01T09:29:50;26.90;19.40
8422;DHT22;4248;48.196;10.924;2022-08-01T09:37:09;27.50;16.40
8422;DHT22;4248;48.196;10.924;2022-08-01T09:39:38;27.60;16.00
8422;DHT22;4248;48.196;10.924;2022-08-01T09:42:27;27.70;15.50
8422;DHT22;4248;48.196;10.924;2022-08-01T09:47:20;28.10;16.30
8422;DHT22;4248;48.196;10.924;2022-08-01T09:49:55;27.90;15.50
8422;DHT22;4248;48.196;10.924;2022-08-01T09:52:23;27.90;15.40
8422;DHT22;4248;48.196;10.924;2022-08-01T09:54:53;28.00;15.10
8422;DHT22;4248;48.196;10.924;2022-08-01T09:59:51;27.90;14.70
8422;DHT22;4248;48.196;10.924;2022-08-01T10:12:15;27.90;14.40
8422;DHT22;4248;48.196;10.924;2022-08-01T10:14:43;27.80;14.50
8422;DHT22;4248;48.196;10.924;2022-08-01T10:17:12;28.10;14.00
8422;DHT22;4248;48.196;10.924;2022-08-01T10:19:40;28.30;13.70
8422;DHT22;4248;48.196;10.924;2022-08-01T10:22:08;28.40;13.70
8422;DHT22;4248;48.196;10.924;2022-08-01T10:24:37;28.20;13.00
8422;DHT22;4248;48.196;10.924;2022-08-01T10:27:08;28.50;13.20
8422;DHT22;4248;48.196;10.924;2022-08-01T10:32:06;28.70;12.30
8422;DHT22;4248;48.196;10.924;2022-08-01T10:34:36;29.00;12.50
8422;DHT22;4248;48.196;10.924;2022-08-01T10:37:04;29.30;12.10
8422;DHT22;4248;48.196;10.924;2022-08-01T10:39:31;29.50;11.70
8422;DHT22;4248;48.196;10.924;2022-08-01T10:41:57;29.50;11.50
8422;DHT22;4248;48.196;10.924;2022-08-01T10:44:27;29.40;11.30
8422;DHT22;4248;48.196;10.924;2022-08-01T10:47:04;29.30;11.60
8422;DHT22;4248;48.196;10.924;2022-08-01T10:49:34;29.30;11.30
8422;DHT22;4248;48.196;10.924;2022-08-01T10:52:02;32.60;12.80
8422;DHT22;4248;48.196;10.924;2022-08-01T10:56:54;30.20;10.80
8422;DHT22;4248;48.196;10.924;2022-08-01T11:04:57;29.90;10.10
8422;DHT22;4248;48.196;10.924;2022-08-01T11:07:42;30.10;9.70
8422;DHT22;4248;48.196;10.924;2022-08-01T11:10:14;30.00;9.50
8422;DHT22;4248;48.196;10.924;2022-08-01T11:12:42;30.00;9.60
8422;DHT22;4248;48.196;10.924;2022-08-01T11:17:44;29.20;9.90
8422;DHT22;4248;48.196;10.924;2022-08-01T11:20:15;29.30;10.40
8422;DHT22;4248;48.196;10.924;2022-08-01T11:33:12;29.20;9.40
8422;DHT22;4248;48.196;10.924;2022-08-01T11:41:24;29.70;9.30
8422;DHT22;4248;48.196;10.924;2022-08-01T11:52:09;30.80;7.90
8422;DHT22;4248;48.196;10.924;2022-08-01T11:57:08;31.00;7.30
8422;DHT22;4248;48.196;10.924;2022-08-01T11:59:55;30.60;5.90
8422;DHT22;4248;48.196;10.924;2022-08-01T12:02:24;30.60;6.90
8422;DHT22;4248;48.196;10.924;2022-08-01T12:04:59;30.50;7.30
8422;DHT22;4248;48.196;10.924;2022-08-01T12:07:26;30.40;6.30
8422;DHT22;4248;48.196;10.924;2022-08-01T12:10:12;30.20;6.50
8422;DHT22;4248;48.196;10.924;2022-08-01T12:12:50;30.30;6.30
8422;DHT22;4248;48.196;10.924;2022-08-01T12:15:17;30.50;6.70
8422;DHT22;4248;48.196;10.924;2022-08-01T12:17:46;30.60;7.10
8422;DHT22;4248;48.196;10.924;2022-08-01T12:20:14;30.30;5.70
8422;DHT22;4248;48.196;10.924;2022-08-01T12:22:40;30.30;6.80
8422;DHT22;4248;48.196;10.924;2022-08-01T12:25:08;30.40;7.60
8422;DHT22;4248;48.196;10.924;2022-08-01T12:27:35;30.90;6.70
8422;DHT22;4248;48.196;10.924;2022-08-01T12:30:01;31.30;6.90
8422;DHT22;4248;48.196;10.924;2022-08-01T12:32:32;30.70;5.60
8422;DHT22;4248;48.196;10.924;2022-08-01T12:35:16;30.50;5.50
8422;DHT22;4248;48.196;10.924;2022-08-01T12:37:46;30.30;5.50
8422;DHT22;4248;48.196;10.924;2022-08-01T12:42:47;29.60;6.80
8422;DHT22;4248;48.196;10.924;2022-08-01T12:45:16;29.20;7.00
8422;DHT22;4248;48.196;10.924;2022-08-01T12:50:26;28.70;8.90
8422;DHT22;4248;48.196;10.924;2022-08-01T12:55:21;27.40;11.10
8422;DHT22;4248;48.196;10.924;2022-08-01T12:57:49;26.70;13.50
8422;DHT22;4248;48.196;10.924;2022-08-01T13:02:46;25.50;17.40
8422;DHT22;4248;48.196;10.924;2022-08-01T13:05:12;25.50;19.90
8422;DHT22;4248;48.196;10.924;2022-08-01T13:07:43;25.80;18.10
8422;DHT22;4248;48.196;10.924;2022-08-01T13:10:10;26.40;18.60
8422;DHT22;4248;48.196;10.924;2022-08-01T13:12:37;26.50;19.50
8422;DHT22;4248;48.196;10.924;2022-08-01T13:15:24;26.60;19.50
8422;DHT22;4248;48.196;10.924;2022-08-01T13:17:54;26.20;22.10
8422;DHT22;4248;48.196;10.924;2022-08-01T13:22:49;26.40;20.80
8422;DHT22;4248;48.196;10.924;2022-08-01T13:25:16;26.30;20.60
8422;DHT22;4248;48.196;10.924;2022-08-01T13:27:42;26.10;20.60
8422;DHT22;4248;48.196;10.924;2022-08-01T13:30:25;26.10;23.20
8422;DHT22;4248;48.196;10.924;2022-08-01T13:33:00;26.10;22.90
8422;DHT22;4248;48.196;10.924;2022-08-01T13:40:27;26.00;20.90
8422;DHT22;4248;48.196;10.924;2022-08-01T13:42:53;25.90;20.90
8422;DHT22;4248;48.196;10.924;2022-08-01T13:45:21;25.40;21.00
8422;DHT22;4248;48.196;10.924;2022-08-01T13:47:46;25.80;21.80
8422;DHT22;4248;48.196;10.924;2022-08-01T13:50:12;25.60;22.20
8422;DHT22;4248;48.196;10.924;2022-08-01T13:52:37;25.60;22.40
8422;DHT22;4248;48.196;10.924;2022-08-01T13:55:03;25.70;22.40
8422;DHT22;4248;48.196;10.924;2022-08-01T13:57:29;25.70;22.30
8422;DHT22;4248;48.196;10.924;2022-08-01T13:59:55;25.70;22.80
8422;DHT22;4248;48.196;10.924;2022-08-01T14:02:20;25.50;22.00
8422;DHT22;4248;48.196;10.924;2022-08-01T14:04:46;25.50;22.90
8422;DHT22;4248;48.196;10.924;2022-08-01T14:07:12;25.30;23.50
8422;DHT22;4248;48.196;10.924;2022-08-01T14:09:38;25.20;23.80
8422;DHT22;4248;48.196;10.924;2022-08-01T14:12:04;25.20;23.60
8422;DHT22;4248;48.196;10.924;2022-08-01T14:14:30;25.10;23.10
8422;DHT22;4248;48.196;10.924;2022-08-01T14:16:56;25.10;22.70
8422;DHT22;4248;48.196;10.924;2022-08-01T14:19:22;25.20;23.40
8422;DHT22;4248;48.196;10.924;2022-08-01T14:21:47;25.20;22.40
8422;DHT22;4248;48.196;10.924;2022-08-01T14:24:13;25.30;22.70
8422;DHT22;4248;48.196;10.924;2022-08-01T14:26:38;25.20;22.30
8422;DHT22;4248;48.196;10.924;2022-08-01T14:29:04;25.00;22.30
8422;DHT22;4248;48.196;10.924;2022-08-01T14:31:30;24.70;23.80
8422;DHT22;4248;48.196;10.924;2022-08-01T14:33:55;24.30;24.90
8422;DHT22;4248;48.196;10.924;2022-08-01T14:36:21;23.90;25.20
8422;DHT22;4248;48.196;10.924;2022-08-01T14:38:47;23.60;25.00
8422;DHT22;4248;48.196;10.924;2022-08-01T14:41:16;23.40;24.80
8422;DHT22;4248;48.196;10.924;2022-08-01T14:43:41;23.40;24.80
8422;DHT22;4248;48.196;10.924;2022-08-01T14:46:07;23.30;24.80
8422;DHT22;4248;48.196;10.924;2022-08-01T14:48:35;23.30;24.80
8422;DHT22;4248;48.196;10.924;2022-08-01T14:51:01;23.20;24.70
8422;DHT22;4248;48.196;10.924;2022-08-01T14:53:28;23.20;24.70
8422;DHT22;4248;48.196;10.924;2022-08-01T14:55:54;23.20;24.70
8422;DHT22;4248;48.196;10.924;2022-08-01T14:58:19;23.20;24.70
8422;DHT22;4248;48.196;10.924;2022-08-01T15:00:45;23.10;24.70
8422;DHT22;4248;48.196;10.924;2022-08-01T15:03:11;23.00;24.50
8422;DHT22;4248;48.196;10.924;2022-08-01T15:05:36;23.10;24.60
8422;DHT22;4248;48.196;10.924;2022-08-01T15:08:03;23.00;24.50
8422;DHT22;4248;48.196;10.924;2022-08-01T15:10:28;23.00;24.50
8422;DHT22;4248;48.196;10.924;2022-08-01T15:12:54;23.10;24.60
8422;DHT22;4248;48.196;10.924;2022-08-01T15:15:20;23.10;23.90
8422;DHT22;4248;48.196;10.924;2022-08-01T15:17:46;23.20;23.60
8422;DHT22;4248;48.196;10.924;2022-08-01T15:20:11;23.40;23.30
8422;DHT22;4248;48.196;10.924;2022-08-01T15:22:37;23.50;23.00
8422;DHT22;4248;48.196;10.924;2022-08-01T15:25:04;23.50;23.10
8422;DHT22;4248;48.196;10.924;2022-08-01T15:27:29;23.60;23.60
8422;DHT22;4248;48.196;10.924;2022-08-01T15:29:55;23.40;24.50
8422;DHT22;4248;48.196;10.924;2022-08-01T15:32:21;23.30;24.80
8422;DHT22;4248;48.196;10.924;2022-08-01T15:34:47;23.20;25.10
8422;DHT22;4248;48.196;10.924;2022-08-01T15:37:13;23.10;25.60
8422;DHT22;4248;48.196;10.924;2022-08-01T15:39:40;23.00;26.00
8422;DHT22;4248;48.196;10.924;2022-08-01T15:42:10;23.00;26.50
8422;DHT22;4248;48.196;10.924;2022-08-01T15:44:36;23.00;27.00
8422;DHT22;4248;48.196;10.924;2022-08-01T15:47:02;23.00;27.80
8422;DHT22;4248;48.196;10.924;2022-08-01T15:49:28;23.10;27.60
8422;DHT22;4248;48.196;10.924;2022-08-01T15:51:54;23.20;28.10
8422;DHT22;4248;48.196;10.924;2022-08-01T15:54:20;23.20;28.60
8422;DHT22;4248;48.196;10.924;2022-08-01T15:56:45;23.20;28.40
8422;DHT22;4248;48.196;10.924;2022-08-01T15:59:12;23.20;28.30
8422;DHT22;4248;48.196;10.924;2022-08-01T16:01:38;23.20;28.30
8422;DHT22;4248;48.196;10.924;2022-08-01T16:04:04;23.10;28.50
8422;DHT22;4248;48.196;10.924;2022-08-01T16:06:32;23.10;28.50
8422;DHT22;4248;48.196;10.924;2022-08-01T16:08:57;23.10;28.90
8422;DHT22;4248;48.196;10.924;2022-08-01T16:11:24;23.20;28.70
8422;DHT22;4248;48.196;10.924;2022-08-01T16:13:53;23.50;28.40
8422;DHT22;4248;48.196;10.924;2022-08-01T16:16:19;23.80;27.70
8422;DHT22;4248;48.196;10.924;2022-08-01T16:18:45;24.20;27.00
8422;DHT22;4248;48.196;10.924;2022-08-01T16:21:11;24.60;26.50
8422;DHT22;4248;48.196;10.924;2022-08-01T16:23:37;24.70;26.10
8422;DHT22;4248;48.196;10.924;2022-08-01T16:26:03;24.90;25.90
8422;DHT22;4248;48.196;10.924;2022-08-01T16:28:29;25.00;26.00
8422;DHT22;4248;48.196;10.924;2022-08-01T16:30:55;24.90;25.90
8422;DHT22;4248;48.196;10.924;2022-08-01T16:33:20;24.90;26.00
8422;DHT22;4248;48.196;10.924;2022-08-01T16:35:46;24.80;26.50
8422;DHT22;4248;48.196;10.924;2022-08-01T16:38:12;24.80;26.80
8422;DHT22;4248;48.196;10.924;2022-08-01T16:40:38;24.80;27.30
8422;DHT22;4248;48.196;10.924;2022-08-01T16:43:04;24.70;27.30
8422;DHT22;4248;48.196;10.924;2022-08-01T16:45:30;24.70;27.80
8422;DHT22;4248;48.196;10.924;2022-08-01T16:47:56;24.60;28.30
8422;DHT22;4248;48.196;10.924;2022-08-01T16:50:22;24.50;28.70
8422;DHT22;4248;48.196;10.924;2022-08-01T16:52:48;24.40;29.00
8422;DHT22;4248;48.196;10.924;2022-08-01T16:55:14;24.40;29.50
8422;DHT22;4248;48.196;10.924;2022-08-01T16:57:40;24.30;29.90
8422;DHT22;4248;48.196;10.924;2022-08-01T17:00:11;24.30;30.00
8422;DHT22;4248;48.196;10.924;2022-08-01T17:02:38;24.30;30.40
8422;DHT22;4248;48.196;10.924;2022-08-01T17:05:05;24.20;30.80
8422;DHT22;4248;48.196;10.924;2022-08-01T17:07:31;24.10;31.50
8422;DHT22;4248;48.196;10.924;2022-08-01T17:09:56;24.00;32.10
8422;DHT22;4248;48.196;10.924;2022-08-01T17:12:23;23.80;32.10
8422;DHT22;4248;48.196;10.924;2022-08-01T17:14:49;23.80;33.10
8422;DHT22;4248;48.196;10.924;2022-08-01T17:17:15;23.70;33.50
8422;DHT22;4248;48.196;10.924;2022-08-01T17:19:40;23.60;33.90
8422;DHT22;4248;48.196;10.924;2022-08-01T17:22:06;23.60;34.30
8422;DHT22;4248;48.196;10.924;2022-08-01T17:24:32;23.50;33.80
8422;DHT22;4248;48.196;10.924;2022-08-01T17:26:57;23.50;35.00
8422;DHT22;4248;48.196;10.924;2022-08-01T17:29:23;23.50;35.20
8422;DHT22;4248;48.196;10.924;2022-08-01T17:31:48;23.50;35.40
8422;DHT22;4248;48.196;10.924;2022-08-01T17:34:14;23.50;34.70
8422;DHT22;4248;48.196;10.924;2022-08-01T17:36:40;23.50;35.30
8422;DHT22;4248;48.196;10.924;2022-08-01T17:39:05;23.40;35.10
8422;DHT22;4248;48.196;10.924;2022-08-01T17:41:33;23.40;34.80
8422;DHT22;4248;48.196;10.924;2022-08-01T17:43:58;23.30;34.60
8422;DHT22;4248;48.196;10.924;2022-08-01T17:46:24;23.30;34.40
8422;DHT22;4248;48.196;10.924;2022-08-01T17:48:49;23.30;34.10
8422;DHT22;4248;48.196;10.924;2022-08-01T17:51:15;23.30;33.80
8422;DHT22;4248;48.196;10.924;2022-08-01T17:53:41;23.30;34.00
8422;DHT22;4248;48.196;10.924;2022-08-01T17:56:06;23.20;34.10
8422;DHT22;4248;48.196;10.924;2022-08-01T17:58:33;23.20;34.40
8422;DHT22;4248;48.196;10.924;2022-08-01T18:00:59;23.20;34.70
8422;DHT22;4248;48.196;10.924;2022-08-01T18:03:24;23.10;35.00
8422;DHT22;4248;48.196;10.924;2022-08-01T18:05:50;23.10;35.80
8422;DHT22;4248;48.196;10.924;2022-08-01T18:08:16;23.00;36.40
8422;DHT22;4248;48.196;10.924;2022-08-01T18:10:41;22.90;36.70
8422;DHT22;4248;48.196;10.924;2022-08-01T18:13:08;22.80;36.90
8422;DHT22;4248;48.196;10.924;2022-08-01T18:15:34;22.70;39.10
8422;DHT22;4248;48.196;10.924;2022-08-01T18:18:00;22.60;38.80
8422;DHT22;4248;48.196;10.924;2022-08-01T18:20:26;22.50;39.40
8422;DHT22;4248;48.196;10.924;2022-08-01T18:22:51;22.40;40.10
8422;DHT22;4248;48.196;10.924;2022-08-01T18:25:17;22.40;40.60
8422;DHT22;4248;48.196;10.924;2022-08-01T18:27:44;22.30;40.90
8422;DHT22;4248;48.196;10.924;2022-08-01T18:30:10;22.30;41.30
8422;DHT22;4248;48.196;10.924;2022-08-01T18:32:35;22.20;41.80
8422;DHT22;4248;48.196;10.924;2022-08-01T18:35:01;22.10;42.30
8422;DHT22;4248;48.196;10.924;2022-08-01T18:37:27;22.10;42.80
8422;DHT22;4248;48.196;10.924;2022-08-01T18:39:53;22.00;43.10
8422;DHT22;4248;48.196;10.924;2022-08-01T18:42:18;22.00;42.80
8422;DHT22;4248;48.196;10.924;2022-08-01T18:44:44;22.00;43.80
8422;DHT22;4248;48.196;10.924;2022-08-01T18:47:10;21.90;44.40
8422;DHT22;4248;48.196;10.924;2022-08-01T18:49:36;21.80;45.50
8422;DHT22;4248;48.196;10.924;2022-08-01T18:52:02;21.70;46.30
8422;DHT22;4248;48.196;10.924;2022-08-01T18:54:28;21.60;46.70
8422;DHT22;4248;48.196;10.924;2022-08-01T18:56:53;21.50;48.10
8422;DHT22;4248;48.196;10.924;2022-08-01T18:59:19;21.50;49.00
8422;DHT22;4248;48.196;10.924;2022-08-01T19:01:45;21.40;48.90
8422;DHT22;4248;48.196;10.924;2022-08-01T19:04:11;21.40;49.10
8422;DHT22;4248;48.196;10.924;2022-08-01T19:06:37;21.30;50.00
8422;DHT22;4248;48.196;10.924;2022-08-01T19:09:04;21.30;49.50
8422;DHT22;4248;48.196;10.924;2022-08-01T19:11:31;21.30;49.00
8422;DHT22;4248;48.196;10.924;2022-08-01T19:13:57;21.30;48.80
8422;DHT22;4248;48.196;10.924;2022-08-01T19:16:22;21.30;48.80
8422;DHT22;4248;48.196;10.924;2022-08-01T19:18:48;21.40;49.00
8422;DHT22;4248;48.196;10.924;2022-08-01T19:21:14;21.40;49.00
8422;DHT22;4248;48.196;10.924;2022-08-01T19:23:39;21.40;48.90
8422;DHT22;4248;48.196;10.924;2022-08-01T19:26:25;21.40;48.90
8422;DHT22;4248;48.196;10.924;2022-08-01T19:28:55;21.40;48.90
8422;DHT22;4248;48.196;10.924;2022-08-01T19:31:24;21.40;48.90
8422;DHT22;4248;48.196;10.924;2022-08-01T19:33:52;21.30;48.80
8422;DHT22;4248;48.196;10.924;2022-08-01T19:36:19;21.20;49.30
8422;DHT22;4248;48.196;10.924;2022-08-01T19:38:45;21.20;49.80
8422;DHT22;4248;48.196;10.924;2022-08-01T19:41:15;21.20;50.20
8422;DHT22;4248;48.196;10.924;2022-08-01T19:43:41;21.20;50.80
8422;DHT22;4248;48.196;10.924;2022-08-01T19:46:07;21.20;50.70
8422;DHT22;4248;48.196;10.924;2022-08-01T19:48:37;21.20;50.80
8422;DHT22;4248;48.196;10.924;2022-08-01T19:51:04;21.20;50.80
8422;DHT22;4248;48.196;10.924;2022-08-01T19:53:45;21.20;50.80
8422;DHT22;4248;48.196;10.924;2022-08-01T19:56:13;21.10;51.10
8422;DHT22;4248;48.196;10.924;2022-08-01T19:58:40;21.10;51.00
8422;DHT22;4248;48.196;10.924;2022-08-01T20:01:12;21.10;52.20
8422;DHT22;4248;48.196;10.924;2022-08-01T20:03:41;21.00;51.30
8422;DHT22;4248;48.196;10.924;2022-08-01T20:06:08;21.10;51.50
8422;DHT22;4248;48.196;10.924;2022-08-01T20:08:34;21.10;51.50
8422;DHT22;4248;48.196;10.924;2022-08-01T20:11:02;21.10;51.30
8422;DHT22;4248;48.196;10.924;2022-08-01T20:13:29;21.00;51.30
8422;DHT22;4248;48.196;10.924;2022-08-01T20:15:55;21.00;51.60